Time;durP1;ratioP1;P1;durP2;ratioP2;P2;SDS_P1;SDS_P2;PMS_P1;PMS_P2;Temp;Humidity;BMP_temperature;BMP_pressure;BME280_temperature;BME280_humidity;BME280_pressure;Samples;Min_cycle;Max_cycle;Signal;HPM_P1;HPM_P2
2022/07/04 00:00:05;;;;;;;2.75;2.03;;;12.90;99.90;;;;;;5066382;28;20123;-70
2022/07/04 00:02:31;;;;;;;1.80;1.70;;;12.90;99.90;;;;;;5074919;28;20381;-70
2022/07/04 00:04:57;;;;;;;1.80;1.70;;;12.90;99.90;;;;;;5074886;28;20036;-70
2022/07/04 00:07:23;;;;;;;2.03;1.92;;;12.80;99.90;;;;;;5072105;28;20489;-70
2022/07/04 00:09:48;;;;;;;1.80;1.70;;;12.80;99.90;;;;;;5075916;28;20055;-70
2022/07/04 00:12:17;;;;;;;1.90;1.80;;;12.80;99.90;;;;;;5075463;28;20072;-70
2022/07/04 00:14:43;;;;;;;1.63;1.50;;;12.70;99.90;;;;;;5058904;28;20040;-71
2022/07/04 00:17:08;;;;;;;1.40;1.30;;;12.70;99.90;;;;;;5072322;28;20039;-71
2022/07/04 00:19:34;;;;;;;1.40;1.30;;;12.60;99.90;;;;;;5075586;28;20040;-71
2022/07/04 00:22:00;;;;;;;2.10;1.60;;;12.70;99.90;;;;;;5073621;28;20071;-70
2022/07/04 00:24:26;;;;;;;1.85;1.67;;;12.60;99.90;;;;;;5074058;28;20076;-70
2022/07/04 00:26:51;;;;;;;1.67;1.58;;;12.60;99.90;;;;;;5074691;28;20471;-70
2022/07/04 00:29:17;;;;;;;2.13;2.00;;;12.50;99.90;;;;;;5059064;28;20128;-70
2022/07/04 00:31:43;;;;;;;2.72;1.88;;;12.50;99.90;;;;;;5051168;28;20036;-70
2022/07/04 00:34:08;;;;;;;2.03;1.60;;;12.50;99.90;;;;;;5055369;28;20041;-70
2022/07/04 00:36:34;;;;;;;1.92;1.77;;;12.50;99.90;;;;;;5067240;28;20135;-71
2022/07/04 00:38:59;;;;;;;1.70;1.60;;;12.40;99.90;;;;;;5073690;28;20062;-71
2022/07/04 00:41:26;;;;;;;1.98;1.88;;;12.40;99.90;;;;;;5074574;28;20097;-71
2022/07/04 00:44:09;;;;;;;1.83;1.48;;;12.40;99.90;;;;;;5074776;28;20108;-71
2022/07/04 00:46:35;;;;;;;1.83;1.50;;;12.40;99.90;;;;;;5054240;28;20032;-71
2022/07/04 00:49:03;;;;;;;2.03;1.70;;;12.40;99.90;;;;;;5059950;28;20048;-71
2022/07/04 00:51:28;;;;;;;2.70;2.50;;;12.30;99.90;;;;;;5073253;28;20046;-71
2022/07/04 00:53:55;;;;;;;2.17;2.08;;;12.30;99.90;;;;;;5069910;28;20044;-71
2022/07/04 00:56:22;;;;;;;1.90;1.80;;;12.30;99.90;;;;;;5070969;28;20127;-71
2022/07/04 00:58:48;;;;;;;2.13;1.85;;;12.30;99.90;;;;;;5073824;28;20108;-70
2022/07/04 01:01:13;;;;;;;2.95;1.95;;;12.30;99.90;;;;;;5073373;28;20709;-70
2022/07/04 01:03:39;;;;;;;2.33;1.80;;;12.20;99.90;;;;;;5072205;28;20032;-71
2022/07/04 01:06:08;;;;;;;1.98;1.42;;;12.30;99.90;;;;;;5073084;28;20063;-70
2022/07/04 01:08:39;;;;;;;2.20;2.05;;;12.20;99.90;;;;;;5071717;28;20071;-70
2022/07/04 01:11:05;;;;;;;1.75;1.60;;;12.20;99.90;;;;;;5073804;28;20130;-71
2022/07/04 01:13:31;;;;;;;3.70;1.90;;;12.20;99.90;;;;;;5073021;28;20139;-70
2022/07/04 01:15:57;;;;;;;2.35;1.83;;;12.20;99.90;;;;;;5072535;28;20040;-70
2022/07/04 01:18:22;;;;;;;3.67;2.20;;;12.20;99.90;;;;;;5071722;28;20027;-70
2022/07/04 01:20:48;;;;;;;1.73;1.63;;;12.20;99.90;;;;;;5071699;28;20040;-70
2022/07/04 01:23:14;;;;;;;4.57;2.00;;;12.10;99.90;;;;;;5069434;28;20044;-70
2022/07/04 01:25:39;;;;;;;3.10;1.60;;;12.10;99.90;;;;;;5088142;28;20044;-71
2022/07/04 01:28:06;;;;;;;2.10;1.67;;;12.10;99.90;;;;;;5090770;28;20074;-71
2022/07/04 01:30:32;;;;;;;2.17;2.08;;;12.00;99.90;;;;;;5072640;28;20065;-70
2022/07/04 01:32:58;;;;;;;2.55;2.20;;;12.00;99.90;;;;;;5070430;28;20035;-70
2022/07/04 01:35:24;;;;;;;2.35;2.15;;;12.00;99.90;;;;;;5071389;28;20040;-71
2022/07/04 01:37:50;;;;;;;1.65;1.55;;;11.90;99.90;;;;;;5070926;28;20040;-70
2022/07/04 01:40:16;;;;;;;2.50;1.75;;;11.90;99.90;;;;;;5072934;28;20051;-71
2022/07/04 01:42:41;;;;;;;1.63;1.52;;;11.90;99.90;;;;;;5072918;28;20501;-71
2022/07/04 01:45:08;;;;;;;2.40;2.30;;;11.90;99.90;;;;;;5072142;28;20589;-70
2022/07/04 01:47:35;;;;;;;2.53;2.40;;;11.90;99.90;;;;;;5071597;28;20052;-71
2022/07/04 01:50:01;;;;;;;2.65;2.45;;;11.90;99.90;;;;;;5070951;28;20070;-71
2022/07/04 01:52:26;;;;;;;3.30;3.00;;;11.90;99.90;;;;;;5070786;28;20035;-70
2022/07/04 01:54:52;;;;;;;3.00;2.80;;;11.90;99.90;;;;;;5068903;28;20048;-71
2022/07/04 01:57:18;;;;;;;3.75;3.10;;;11.90;99.90;;;;;;5066939;28;20593;-71
2022/07/04 02:02:27;;;;;;;4.03;3.67;;;11.90;99.90;;;;;;5072793;28;20044;-70
2022/07/04 02:04:53;;;;;;;3.90;3.45;;;11.90;99.90;;;;;;5071378;28;20135;-70
2022/07/04 02:07:19;;;;;;;4.30;3.70;;;11.90;99.90;;;;;;5072815;28;20359;-70
2022/07/04 02:09:44;;;;;;;4.65;4.13;;;11.80;99.90;;;;;;5071919;28;20032;-70
2022/07/04 02:14:55;;;;;;;4.60;4.10;;;11.80;99.90;;;;;;5089200;28;20076;-71
2022/07/04 02:17:21;;;;;;;5.35;3.90;;;11.90;99.90;;;;;;5070548;28;20063;-71
2022/07/04 02:19:47;;;;;;;5.15;4.65;;;11.80;99.90;;;;;;5070332;28;20043;-72
2022/07/04 02:22:13;;;;;;;5.35;4.85;;;11.80;99.90;;;;;;5071503;28;20040;-71
2022/07/04 02:24:39;;;;;;;4.97;4.47;;;11.90;99.90;;;;;;5072286;28;20052;-70
2022/07/04 02:27:05;;;;;;;5.20;4.38;;;11.80;99.90;;;;;;5070349;28;20063;-70
2022/07/04 02:29:31;;;;;;;4.55;4.15;;;11.80;99.90;;;;;;5072020;28;20036;-71
2022/07/04 02:31:57;;;;;;;4.88;4.07;;;11.80;99.90;;;;;;5067068;28;20371;-71
2022/07/04 02:34:22;;;;;;;4.28;3.88;;;11.80;99.90;;;;;;5070447;28;20024;-71
2022/07/04 02:36:48;;;;;;;4.53;4.22;;;11.80;99.90;;;;;;5072188;28;20040;-71
2022/07/04 02:39:14;;;;;;;4.85;4.45;;;11.80;99.90;;;;;;5072261;28;20041;-71
2022/07/04 02:41:39;;;;;;;4.90;4.40;;;11.80;99.90;;;;;;5071413;28;20089;-71
2022/07/04 02:44:05;;;;;;;4.45;4.13;;;11.70;99.90;;;;;;5060386;28;20036;-71
2022/07/04 02:46:33;;;;;;;5.03;4.57;;;11.70;99.90;;;;;;5072365;28;20040;-71
2022/07/04 02:49:00;;;;;;;4.75;4.35;;;11.70;99.90;;;;;;5071942;28;20065;-71
2022/07/04 02:51:25;;;;;;;8.93;4.68;;;11.70;99.90;;;;;;5069160;28;20093;-71
2022/07/04 02:53:51;;;;;;;5.50;4.97;;;11.70;99.90;;;;;;5071565;28;20482;-71
2022/07/04 02:56:17;;;;;;;5.15;4.47;;;11.70;99.90;;;;;;5070317;28;20044;-71
2022/07/04 02:58:42;;;;;;;5.40;4.72;;;11.70;99.90;;;;;;5066654;28;20041;-71
2022/07/04 03:01:08;;;;;;;5.00;4.60;;;11.70;99.90;;;;;;5062486;28;20058;-71
2022/07/04 03:03:34;;;;;;;5.20;4.80;;;11.70;99.90;;;;;;5076285;28;20036;-71
2022/07/04 03:05:59;;;;;;;5.93;4.70;;;11.70;99.90;;;;;;5074589;28;20040;-71
2022/07/04 03:08:25;;;;;;;5.20;4.80;;;11.70;99.90;;;;;;5076637;28;20443;-71
2022/07/04 03:10:51;;;;;;;5.20;4.80;;;11.70;99.90;;;;;;5074428;28;20083;-71
2022/07/04 03:13:18;;;;;;;6.10;5.53;;;11.70;99.90;;;;;;5075501;28;20118;-71
2022/07/04 03:15:43;;;;;;;5.22;4.78;;;11.70;99.90;;;;;;5073024;28;20040;-71
2022/07/04 03:18:09;;;;;;;5.00;4.60;;;11.70;99.90;;;;;;5074749;28;20032;-71
2022/07/04 03:20:35;;;;;;;5.35;4.90;;;11.70;99.90;;;;;;5058510;28;20068;-71
2022/07/04 03:23:00;;;;;;;5.85;5.00;;;11.70;99.90;;;;;;5057491;28;20036;-71
2022/07/04 03:25:26;;;;;;;4.82;4.43;;;11.70;99.90;;;;;;5072611;28;20152;-71
2022/07/04 03:27:52;;;;;;;4.65;4.25;;;11.70;99.90;;;;;;5075529;28;20048;-71
2022/07/04 03:30:17;;;;;;;4.88;4.47;;;11.70;99.90;;;;;;5067889;28;20090;-71
2022/07/04 03:32:43;;;;;;;6.28;4.85;;;11.70;99.90;;;;;;5075136;28;20048;-71
2022/07/04 03:35:09;;;;;;;5.30;4.80;;;11.70;99.90;;;;;;5066390;28;20040;-71
2022/07/04 03:37:34;;;;;;;4.68;4.28;;;11.70;99.90;;;;;;5074318;28;20537;-71
2022/07/04 03:40:00;;;;;;;4.93;4.53;;;11.70;99.90;;;;;;5075063;28;20036;-72
2022/07/04 03:42:25;;;;;;;5.35;4.95;;;11.70;99.90;;;;;;5093694;28;20089;-71
2022/07/04 03:44:52;;;;;;;5.18;4.60;;;11.70;99.90;;;;;;5092172;28;20046;-71
2022/07/04 03:47:17;;;;;;;5.00;4.53;;;11.60;99.90;;;;;;5063867;28;20032;-68
2022/07/04 03:49:43;;;;;;;5.05;4.55;;;11.60;99.90;;;;;;5074281;28;20136;-71
2022/07/04 03:52:09;;;;;;;4.97;4.57;;;11.60;99.90;;;;;;5072001;28;20040;-72
2022/07/04 03:54:34;;;;;;;4.57;4.18;;;11.70;99.90;;;;;;5073599;28;20101;-71
2022/07/04 03:57:00;;;;;;;7.22;4.35;;;11.70;99.90;;;;;;5065222;28;20052;-71
2022/07/04 03:59:25;;;;;;;4.90;4.50;;;11.70;99.90;;;;;;5066340;28;20036;-71
2022/07/04 04:01:51;;;;;;;4.70;4.40;;;11.70;99.90;;;;;;5073713;28;20074;-71
2022/07/04 04:07:01;;;;;;;10.73;5.72;;;11.80;99.90;;;;;;5071203;28;20051;-73
2022/07/04 04:09:26;;;;;;;5.88;5.47;;;11.80;99.90;;;;;;5074070;28;20040;-72
2022/07/04 04:11:53;;;;;;;6.10;5.30;;;11.90;99.90;;;;;;5056942;28;20404;-71
2022/07/04 04:14:19;;;;;;;6.10;5.60;;;11.90;99.90;;;;;;5072520;28;20039;-71
2022/07/04 04:16:45;;;;;;;6.15;5.65;;;12.00;99.90;;;;;;5054206;28;20396;-71
2022/07/04 04:19:11;;;;;;;5.68;5.28;;;12.00;99.90;;;;;;5075049;28;20123;-71
2022/07/04 04:21:37;;;;;;;7.25;6.32;;;12.00;99.90;;;;;;5073032;28;20040;-71
2022/07/04 04:24:03;;;;;;;6.40;5.90;;;12.10;99.90;;;;;;5075424;28;20046;-71
2022/07/04 04:26:29;;;;;;;6.85;6.15;;;12.10;99.90;;;;;;5062757;28;20048;-71
2022/07/04 04:28:55;;;;;;;6.90;6.30;;;12.20;99.90;;;;;;5054864;28;20044;-71
2022/07/04 04:31:20;;;;;;;6.57;5.90;;;12.20;99.90;;;;;;5072476;28;20036;-71
2022/07/04 04:33:46;;;;;;;6.50;5.95;;;12.30;99.90;;;;;;5061202;28;20092;-71
2022/07/04 04:36:11;;;;;;;7.53;6.57;;;12.30;99.90;;;;;;5062217;28;20051;-71
2022/07/04 04:38:37;;;;;;;7.03;6.43;;;12.40;99.90;;;;;;5039409;28;20028;-71
2022/07/04 04:41:03;;;;;;;7.82;7.20;;;12.50;99.90;;;;;;5073222;28;20040;-71
2022/07/04 04:43:28;;;;;;;8.73;7.93;;;12.50;99.90;;;;;;5068404;28;20083;-71
2022/07/04 04:45:54;;;;;;;9.63;8.73;;;12.60;99.90;;;;;;5071163;28;20033;-72
2022/07/04 04:48:19;;;;;;;8.73;7.93;;;12.70;99.90;;;;;;5054037;28;20078;-72
2022/07/04 04:50:45;;;;;;;9.35;8.45;;;12.90;99.90;;;;;;5073133;28;20039;-71
2022/07/04 04:53:11;;;;;;;10.30;9.20;;;13.00;99.90;;;;;;5081962;28;20044;-72
2022/07/04 04:55:37;;;;;;;10.15;9.10;;;13.10;99.90;;;;;;5061051;28;20051;-72
2022/07/04 04:58:02;;;;;;;10.95;9.88;;;13.30;99.90;;;;;;5072351;28;20080;-71
2022/07/04 05:00:28;;;;;;;10.88;9.73;;;13.40;99.90;;;;;;5054440;28;20036;-71
2022/07/04 05:02:53;;;;;;;11.43;10.32;;;13.50;99.90;;;;;;5068061;28;20133;-71
2022/07/04 05:05:19;;;;;;;10.27;9.30;;;13.60;99.90;;;;;;5072197;28;20453;-71
2022/07/04 05:07:45;;;;;;;10.05;9.15;;;13.70;99.90;;;;;;5073379;28;20040;-71
2022/07/04 05:10:10;;;;;;;11.18;9.60;;;13.80;99.90;;;;;;5066877;28;20072;-71
2022/07/04 05:12:36;;;;;;;13.18;9.55;;;13.90;99.90;;;;;;5056245;28;20379;-72
2022/07/04 05:15:03;;;;;;;11.02;9.98;;;13.90;99.90;;;;;;5074290;28;20042;-72
2022/07/04 05:17:28;;;;;;;11.05;9.88;;;14.00;99.90;;;;;;5074068;28;20054;-71
2022/07/04 05:19:54;;;;;;;11.75;9.80;;;14.10;99.90;;;;;;5070543;28;20032;-72
2022/07/04 05:22:20;;;;;;;11.13;10.02;;;;;;;;;;5073806;28;20077;-72
2022/07/04 05:24:45;;;;;;;12.43;9.75;;;14.30;99.90;;;;;;5048460;28;20079;-71
2022/07/04 05:27:11;;;;;;;30.65;10.80;;;14.30;99.90;;;;;;5062038;28;20091;-74
2022/07/04 05:29:37;;;;;;;11.60;9.43;;;14.40;99.90;;;;;;5050794;28;20041;-72
2022/07/04 05:32:04;;;;;;;10.07;9.18;;;14.50;99.90;;;;;;5050369;28;20052;-72
2022/07/04 05:34:29;;;;;;;9.20;8.40;;;14.60;99.90;;;;;;5049852;28;20124;-73
2022/07/04 05:36:55;;;;;;;9.75;8.77;;;14.70;99.90;;;;;;5068400;28;20442;-73
2022/07/04 05:39:21;;;;;;;10.93;8.77;;;14.90;99.90;;;;;;5070544;22;20486;-68
2022/07/04 05:41:46;;;;;;;10.40;8.48;;;15.00;99.90;;;;;;5052584;28;20046;-68
2022/07/04 05:44:12;;;;;;;11.77;9.02;;;15.10;99.90;;;;;;5071860;28;20036;-68
2022/07/04 05:46:37;;;;;;;12.63;8.63;;;15.20;99.90;;;;;;5047989;28;20037;-68
2022/07/04 05:49:03;;;;;;;10.35;9.32;;;15.30;99.90;;;;;;5068096;28;20565;-68
2022/07/04 05:51:29;;;;;;;10.65;8.90;;;15.50;99.90;;;;;;5051062;28;20037;-68
2022/07/04 05:53:55;;;;;;;8.73;7.78;;;16.40;99.90;;;;;;5047730;28;20596;-69
2022/07/04 05:56:20;;;;;;;8.63;6.95;;;18.10;99.90;;;;;;5049913;28;20040;-69
2022/07/04 05:58:46;;;;;;;8.25;7.22;;;19.70;99.90;;;;;;5050335;28;20036;-68
2022/07/04 06:01:12;;;;;;;8.85;6.45;;;20.90;99.90;;;;;;5037486;28;20489;-68
2022/07/04 06:03:37;;;;;;;8.77;6.75;;;22.20;99.90;;;;;;5048393;28;20052;-69
2022/07/04 06:06:04;;;;;;;7.80;6.15;;;;;;;;;;5046527;28;20059;-69
2022/07/04 06:08:30;;;;;;;7.10;5.88;;;24.00;99.90;;;;;;5050637;28;20139;-68
2022/07/04 06:10:55;;;;;;;7.03;5.85;;;24.90;99.90;;;;;;5046150;28;20498;-68
2022/07/04 06:13:21;;;;;;;7.32;5.38;;;25.30;98.30;;;;;;5063323;28;20086;-68
2022/07/04 06:15:47;;;;;;;6.82;5.00;;;25.80;97.70;;;;;;5033026;28;20401;-69
2022/07/04 06:18:13;;;;;;;10.63;5.45;;;26.30;96.70;;;;;;5049921;28;20394;-68
2022/07/04 06:20:42;;;;;;;5.60;4.72;;;25.80;95.70;;;;;;5052523;28;20051;-68
2022/07/04 06:23:07;;;;;;;10.18;4.70;;;26.20;96.20;;;;;;5051771;28;20044;-68
2022/07/04 06:25:34;;;;;;;5.70;4.68;;;26.60;94.90;;;;;;5052850;28;20048;-69
2022/07/04 06:28:00;;;;;;;4.60;3.60;;;27.00;92.60;;;;;;5044873;28;20053;-69
2022/07/04 06:30:26;;;;;;;5.47;3.78;;;27.30;92.40;;;;;;5040733;28;20040;-69
2022/07/04 06:32:55;;;;;;;6.88;3.40;;;27.60;92.10;;;;;;5047683;28;20048;-68
2022/07/04 06:35:44;;;;;;;4.15;3.40;;;28.00;92.30;;;;;;5044571;28;20127;-69
2022/07/04 06:38:12;;;;;;;4.50;3.10;;;28.50;90.00;;;;;;5042452;28;20075;-69
2022/07/04 06:40:39;;;;;;;5.00;2.83;;;28.70;88.30;;;;;;5046562;28;20132;-69
2022/07/04 06:43:05;;;;;;;4.53;2.40;;;28.90;87.40;;;;;;5033470;28;20045;-69
2022/07/04 06:45:31;;;;;;;4.63;2.80;;;28.90;85.60;;;;;;5025421;28;20037;-69
2022/07/04 06:47:56;;;;;;;5.53;2.70;;;29.40;84.40;;;;;;5046213;28;20071;-69
2022/07/04 06:50:22;;;;;;;4.10;2.40;;;29.60;84.60;;;;;;5045016;28;20048;-69
2022/07/04 06:52:48;;;;;;;7.03;2.83;;;30.00;83.00;;;;;;5035744;28;20053;-68
2022/07/04 06:55:14;;;;;;;4.78;2.42;;;29.60;80.40;;;;;;5057539;28;20071;-68
2022/07/04 06:57:40;;;;;;;3.55;2.03;;;29.80;82.70;;;;;;5064818;28;20493;-69
2022/07/04 07:00:07;;;;;;;5.25;2.28;;;29.70;81.90;;;;;;5069117;28;20037;-69
2022/07/04 07:02:34;;;;;;;4.55;2.33;;;29.90;80.70;;;;;;5052113;28;20470;-69
2022/07/04 07:05:00;;;;;;;4.25;2.30;;;30.20;78.70;;;;;;5048272;28;20048;-69
2022/07/04 07:07:27;;;;;;;4.43;2.20;;;30.10;80.20;;;;;;5047111;28;20029;-69
2022/07/04 07:09:53;;;;;;;4.53;2.28;;;29.80;79.60;;;;;;5055220;28;20052;-69
2022/07/04 07:12:18;;;;;;;4.97;2.58;;;30.10;80.50;;;;;;5052743;28;20040;-69
2022/07/04 07:14:44;;;;;;;7.22;2.33;;;29.50;80.50;;;;;;5045708;28;20029;-69
2022/07/04 07:17:10;;;;;;;5.68;2.70;;;29.00;81.70;;;;;;5046658;28;20044;-69
2022/07/04 07:19:35;;;;;;;6.78;2.67;;;28.30;79.20;;;;;;5050647;28;20063;-69
2022/07/04 07:22:01;;;;;;;7.65;2.88;;;26.70;83.30;;;;;;5052728;28;20040;-68
2022/07/04 07:24:30;;;;;;;7.47;2.58;;;26.10;84.70;;;;;;5046702;28;20040;-68
2022/07/04 07:26:55;;;;;;;4.45;2.67;;;25.50;87.30;;;;;;5061863;28;20127;-68
2022/07/04 07:29:21;;;;;;;5.10;2.65;;;24.90;89.10;;;;;;5047437;28;20120;-69
2022/07/04 07:31:47;;;;;;;5.68;2.63;;;24.60;91.00;;;;;;5046050;28;20460;-69
2022/07/04 07:34:12;;;;;;;5.90;2.92;;;24.90;90.80;;;;;;5052299;28;20052;-69
2022/07/04 07:36:38;;;;;;;13.02;3.22;;;25.60;90.60;;;;;;5052205;28;20145;-70
2022/07/04 07:39:03;;;;;;;6.57;2.80;;;25.80;90.50;;;;;;5034134;28;20490;-70
2022/07/04 07:41:29;;;;;;;5.50;3.08;;;25.90;89.50;;;;;;5051668;28;20123;-70
2022/07/04 07:43:55;;;;;;;7.75;2.78;;;26.10;89.50;;;;;;5045569;28;20485;-70
2022/07/04 07:46:20;;;;;;;6.15;2.78;;;26.10;88.80;;;;;;5049998;28;20136;-70
2022/07/04 07:48:46;;;;;;;6.90;2.45;;;26.10;89.40;;;;;;5054093;28;20572;-70
2022/07/04 07:51:13;;;;;;;5.38;2.67;;;26.00;89.00;;;;;;5049908;28;20040;-70
2022/07/04 07:53:39;;;;;;;5.38;2.30;;;25.50;89.80;;;;;;5055256;28;20400;-70
2022/07/04 07:56:05;;;;;;;6.30;2.10;;;24.80;89.50;;;;;;5036761;28;20040;-69
2022/07/04 07:58:30;;;;;;;6.80;2.15;;;24.80;90.50;;;;;;5030354;28;20064;-70
2022/07/04 08:00:56;;;;;;;6.05;2.20;;;25.60;90.40;;;;;;5038590;28;20336;-70
2022/07/04 08:06:06;;;;;;;5.30;2.30;;;26.80;86.80;;;;;;5065686;28;20045;-69
2022/07/04 08:08:33;;;;;;;6.13;1.75;;;27.00;86.70;;;;;;5045745;28;20096;-70
2022/07/04 08:10:58;;;;;;;6.85;2.05;;;27.20;85.80;;;;;;5051690;28;20052;-69
2022/07/04 08:13:24;;;;;;;5.35;1.60;;;27.30;81.70;;;;;;5055506;28;20044;-69
2022/07/04 08:15:49;;;;;;;3.63;1.65;;;26.60;83.20;;;;;;5050151;28;20090;-69
2022/07/04 08:18:17;;;;;;;3.60;1.67;;;25.50;84.30;;;;;;5052002;28;20462;-69
2022/07/04 08:20:42;;;;;;;3.13;1.35;;;25.10;84.80;;;;;;5053141;28;20128;-69
2022/07/04 08:23:08;;;;;;;5.55;1.70;;;24.70;88.50;;;;;;5053539;28;20132;-69
2022/07/04 08:25:34;;;;;;;4.72;1.65;;;24.30;89.20;;;;;;5039965;28;20090;-69
2022/07/04 08:27:59;;;;;;;4.95;1.50;;;24.00;89.40;;;;;;5052326;28;20028;-69
2022/07/04 08:30:25;;;;;;;3.35;1.55;;;23.80;89.70;;;;;;5059733;28;20037;-69
2022/07/04 08:32:50;;;;;;;7.57;2.00;;;23.80;89.80;;;;;;5068573;28;20039;-69
2022/07/04 08:35:16;;;;;;;4.55;2.08;;;23.80;89.60;;;;;;5051645;28;20470;-69
2022/07/04 08:37:42;;;;;;;5.07;1.60;;;23.80;89.70;;;;;;5055033;28;20075;-69
2022/07/04 08:40:08;;;;;;;3.67;1.40;;;23.70;88.80;;;;;;5033389;28;20075;-69
2022/07/04 08:42:38;;;;;;;3.60;1.50;;;23.60;92.40;;;;;;5051590;28;20041;-69
2022/07/04 08:45:05;;;;;;;3.30;1.60;;;23.50;90.70;;;;;;5035558;28;20102;-70
2022/07/04 08:47:35;;;;;;;4.13;1.40;;;23.40;91.20;;;;;;5055109;28;20043;-69
2022/07/04 08:50:12;;;;;;;4.63;1.90;;;23.40;90.90;;;;;;5049440;28;20060;-69
2022/07/04 08:52:45;;;;;;;7.68;2.15;;;23.50;90.30;;;;;;5053617;28;20041;-69
2022/07/04 09:00:42;;;;;;;6.78;1.55;;;23.50;90.20;;;;;;5055971;28;20074;-69
2022/07/04 09:03:08;;;;;;;2.78;1.40;;;23.40;91.00;;;;;;5045463;28;20040;-70
2022/07/04 09:05:34;;;;;;;3.47;1.40;;;23.30;89.90;;;;;;5039154;28;20040;-69
2022/07/04 09:08:01;;;;;;;3.92;1.50;;;23.00;90.00;;;;;;5052428;28;20485;-69
2022/07/04 09:10:27;;;;;;;5.30;1.30;;;22.60;90.50;;;;;;5054808;28;20048;-69
2022/07/04 09:12:53;;;;;;;4.05;1.20;;;22.20;91.20;;;;;;5051383;28;20625;-69
2022/07/04 09:15:19;;;;;;;5.50;1.30;;;22.10;91.60;;;;;;5044333;28;20044;-69
2022/07/04 09:17:46;;;;;;;3.63;1.20;;;22.00;92.10;;;;;;5050744;28;20040;-69
2022/07/04 09:20:20;;;;;;;2.40;1.05;;;22.10;92.60;;;;;;5052179;28;20086;-69
2022/07/04 09:22:47;;;;;;;2.97;1.10;;;22.30;91.20;;;;;;5037479;28;20435;-69
2022/07/04 09:25:16;;;;;;;3.05;1.23;;;22.20;91.60;;;;;;5054143;28;20040;-69
2022/07/04 09:27:53;;;;;;;2.15;1.02;;;22.40;91.90;;;;;;5048689;28;20045;-69
2022/07/04 09:30:21;;;;;;;2.10;0.98;;;22.70;91.70;;;;;;5051985;28;20469;-69
2022/07/04 09:32:54;;;;;;;2.83;0.80;;;22.80;91.10;;;;;;5047213;28;20040;-69
2022/07/04 09:35:24;;;;;;;1.80;1.08;;;23.10;90.40;;;;;;5034157;28;20037;-69
2022/07/04 09:37:55;;;;;;;1.63;0.77;;;23.10;90.60;;;;;;5039770;28;20123;-69
2022/07/04 09:40:29;;;;;;;0.95;0.80;;;23.40;88.00;;;;;;5050797;28;20136;-69
2022/07/04 09:42:57;;;;;;;2.55;0.80;;;23.50;86.40;;;;;;5051741;28;20508;-69
2022/07/04 09:45:26;;;;;;;2.30;0.88;;;23.60;87.20;;;;;;5052942;28;20044;-69
2022/07/04 09:47:56;;;;;;;1.35;0.80;;;23.40;86.70;;;;;;5050465;28;20051;-68
2022/07/04 09:50:25;;;;;;;3.17;1.20;;;23.20;86.40;;;;;;5052219;28;20036;-68
2022/07/04 09:53:00;;;;;;;1.77;0.80;;;22.90;88.10;;;;;;5053032;28;20538;-69
2022/07/04 09:55:39;;;;;;;3.10;1.00;;;22.90;87.50;;;;;;5048459;28;20131;-69
2022/07/04 09:58:15;;;;;;;1.58;1.10;;;22.80;88.00;;;;;;5050657;28;20048;-69
2022/07/04 10:00:45;;;;;;;3.30;1.20;;;22.80;88.80;;;;;;5051979;28;20037;-69
2022/07/04 10:03:25;;;;;;;1.73;1.00;;;22.90;88.80;;;;;;5036985;28;20370;-69
2022/07/04 10:06:06;;;;;;;1.88;0.90;;;23.00;88.50;;;;;;5052233;28;20133;-69
2022/07/04 10:08:33;;;;;;;2.13;0.90;;;22.90;88.90;;;;;;5053406;28;20087;-69
2022/07/04 10:11:04;;;;;;;2.90;0.80;;;22.90;88.50;;;;;;5052879;28;20581;-69
2022/07/04 10:13:30;;;;;;;1.55;0.90;;;22.80;87.40;;;;;;5052594;28;20474;-69
2022/07/04 10:15:56;;;;;;;1.27;0.93;;;22.70;88.10;;;;;;5051743;28;20044;-68
2022/07/04 10:18:23;;;;;;;1.17;0.90;;;22.70;89.10;;;;;;5036524;28;20047;-69
2022/07/04 10:20:50;;;;;;;2.50;0.93;;;22.70;89.90;;;;;;5053223;28;20071;-68
2022/07/04 10:23:17;;;;;;;2.35;1.08;;;22.80;84.80;;;;;;5033344;28;20079;-69
2022/07/04 10:25:49;;;;;;;1.27;0.95;;;22.90;87.70;;;;;;5030132;28;20040;-69
2022/07/04 10:28:15;;;;;;;;;;;23.00;89.20;;;;;;5044464;28;20102;-69
2022/07/04 10:30:41;;;;;;;2.10;0.90;;;23.10;85.70;;;;;;5048696;28;20358;-69
2022/07/04 10:33:11;;;;;;;1.90;1.13;;;23.20;85.10;;;;;;5048223;28;20394;-69
2022/07/04 10:35:49;;;;;;;2.00;0.95;;;23.50;85.40;;;;;;5048605;28;20542;-69
2022/07/04 10:38:16;;;;;;;1.77;0.95;;;23.70;85.30;;;;;;5048878;28;20053;-69
2022/07/04 10:40:48;;;;;;;2.35;1.10;;;23.60;83.40;;;;;;5051607;28;20041;-69
2022/07/04 10:43:41;;;;;;;5.18;1.00;;;23.50;84.20;;;;;;5049459;28;20044;-69
2022/07/04 10:46:16;;;;;;;3.85;1.20;;;23.50;85.90;;;;;;5047866;28;20044;-69
2022/07/04 10:49:20;;;;;;;2.78;1.15;;;23.50;85.60;;;;;;5040011;28;20044;-69
2022/07/04 10:52:00;;;;;;;3.03;1.23;;;23.40;84.60;;;;;;5038232;28;20047;-68
2022/07/04 10:54:33;;;;;;;2.75;1.23;;;23.20;85.40;;;;;;5038135;28;20048;-69
2022/07/04 10:57:16;;;;;;;2.97;1.30;;;23.20;86.60;;;;;;5048113;28;20032;-68
2022/07/04 10:59:51;;;;;;;1.42;1.27;;;23.10;86.80;;;;;;5019744;28;20040;-69
2022/07/04 11:02:17;;;;;;;2.67;1.13;;;23.00;87.70;;;;;;5047749;28;20471;-69
2022/07/04 11:04:56;;;;;;;2.83;1.10;;;22.90;89.40;;;;;;5050070;28;20086;-69
2022/07/04 11:07:22;;;;;;;2.20;1.38;;;23.00;88.80;;;;;;5051157;28;20502;-68
2022/07/04 11:10:10;;;;;;;1.85;1.00;;;23.10;86.00;;;;;;5053141;28;20055;-68
2022/07/04 11:12:56;;;;;;;4.38;1.27;;;23.10;86.50;;;;;;5052446;28;20083;-69
2022/07/04 11:15:25;;;;;;;1.35;1.00;;;23.10;85.50;;;;;;5020501;28;20508;-69
2022/07/04 11:17:52;;;;;;;6.32;1.40;;;23.20;87.10;;;;;;5039984;28;20360;-69
2022/07/04 11:20:22;;;;;;;2.95;1.55;;;23.30;85.40;;;;;;5034066;28;20080;-68
2022/07/04 11:22:48;;;;;;;1.88;0.90;;;23.40;86.20;;;;;;5020734;28;20040;-68
2022/07/04 11:25:15;;;;;;;2.47;1.25;;;23.50;86.10;;;;;;5055561;28;20436;-68
2022/07/04 11:27:41;;;;;;;2.33;1.00;;;23.60;86.10;;;;;;5052730;28;20090;-68
2022/07/04 11:30:08;;;;;;;1.70;0.98;;;23.80;86.30;;;;;;5052395;28;20053;-69
2022/07/04 11:32:35;;;;;;;2.10;0.90;;;23.70;86.60;;;;;;5035918;28;20048;-69
2022/07/04 11:35:03;;;;;;;2.33;0.82;;;23.70;86.50;;;;;;5039278;28;20050;-68
2022/07/04 11:37:28;;;;;;;2.20;0.90;;;23.80;85.90;;;;;;5055336;28;20039;-68
2022/07/04 11:45:24;;;;;;;1.50;0.80;;;24.00;83.90;;;;;;5050722;28;20037;-68
2022/07/04 11:47:49;;;;;;;2.35;0.93;;;24.10;83.70;;;;;;5052107;28;20028;-68
2022/07/04 11:50:18;;;;;;;1.48;0.85;;;24.10;83.10;;;;;;5046664;28;20399;-68
2022/07/04 11:52:53;;;;;;;1.52;0.95;;;24.00;82.40;;;;;;5035020;28;20036;-68
2022/07/04 11:55:19;;;;;;;3.00;1.10;;;23.90;83.90;;;;;;5051490;28;20123;-68
2022/07/04 11:57:47;;;;;;;2.15;1.08;;;24.10;84.30;;;;;;5047471;28;20041;-68
2022/07/04 12:00:15;;;;;;;2.53;0.80;;;24.20;83.70;;;;;;5054234;28;20029;-69
2022/07/04 12:02:42;;;;;;;4.32;1.42;;;24.40;84.20;;;;;;5033302;28;20040;-68
2022/07/04 12:05:10;;;;;;;4.45;1.20;;;24.20;83.90;;;;;;5046888;28;20036;-68
2022/07/04 12:07:38;;;;;;;1.90;0.90;;;24.00;84.40;;;;;;5048588;28;20091;-68
2022/07/04 12:10:14;;;;;;;2.63;1.00;;;24.10;85.40;;;;;;5044149;28;20076;-68
2022/07/04 12:13:08;;;;;;;4.68;0.95;;;24.10;86.20;;;;;;5049824;28;20070;-68
2022/07/04 12:15:42;;;;;;;3.05;0.93;;;24.20;85.70;;;;;;5049047;28;20535;-69
2022/07/04 12:18:31;;;;;;;2.72;0.80;;;24.40;82.70;;;;;;5045251;28;20036;-68
2022/07/04 12:21:12;;;;;;;2.85;0.98;;;24.00;79.40;;;;;;5041388;28;20040;-68
2022/07/04 12:23:39;;;;;;;1.77;0.90;;;23.90;82.00;;;;;;5034596;28;20032;-68
2022/07/04 12:26:05;;;;;;;1.05;0.80;;;23.90;82.80;;;;;;5042388;28;20061;-69
2022/07/04 12:28:36;;;;;;;2.33;0.75;;;24.10;84.30;;;;;;5048108;28;20087;-69
2022/07/04 12:31:02;;;;;;;1.35;0.70;;;24.30;82.10;;;;;;5044555;28;20056;-68
2022/07/04 12:33:29;;;;;;;1.90;0.80;;;24.40;84.00;;;;;;5052062;28;20044;-69
2022/07/04 12:36:00;;;;;;;1.38;0.63;;;24.40;82.10;;;;;;5054867;28;20162;-69
2022/07/04 12:38:29;;;;;;;3.00;0.70;;;24.40;81.60;;;;;;5052398;28;20056;-69
2022/07/04 12:40:57;;;;;;;1.88;0.77;;;24.20;80.90;;;;;;5052850;28;20090;-68
2022/07/04 12:43:26;;;;;;;1.98;0.70;;;24.30;76.00;;;;;;5058114;28;20048;-68
2022/07/04 12:45:55;;;;;;;1.52;0.70;;;24.40;81.00;;;;;;5048333;28;20070;-69
2022/07/04 12:48:25;;;;;;;1.63;0.68;;;24.40;80.20;;;;;;5051591;28;20217;-68
2022/07/04 12:50:52;;;;;;;3.20;0.90;;;24.50;82.80;;;;;;5035718;28;20478;-68
2022/07/04 12:53:18;;;;;;;1.85;0.70;;;24.20;81.50;;;;;;5050750;28;20091;-68
2022/07/04 12:55:46;;;;;;;2.30;0.90;;;24.10;79.60;;;;;;5053735;28;20500;-68
2022/07/04 12:58:12;;;;;;;3.47;0.65;;;24.20;82.20;;;;;;5037367;28;20040;-68
2022/07/04 13:00:39;;;;;;;1.55;0.60;;;24.10;76.00;;;;;;5042858;28;20102;-68
2022/07/04 13:03:05;;;;;;;2.10;0.60;;;24.10;75.40;;;;;;5047606;28;20036;-68
2022/07/04 13:05:35;;;;;;;2.42;0.93;;;23.90;77.20;;;;;;5052584;28;20074;-68
2022/07/04 13:08:01;;;;;;;2.67;0.73;;;24.00;80.20;;;;;;5053830;28;20047;-68
2022/07/04 13:10:26;;;;;;;1.60;0.70;;;24.00;82.10;;;;;;5052657;28;20051;-68